sensor_id;sensor_type;location;lat;lon;timestamp;pressure;altitude;pressure_sealevel;temperature;humidity
5755;BME280;2902;42.130;24.732;2023-04-01T00:00:58;98657.09;;;12.34;70.41
5755;BME280;2902;42.130;24.732;2023-04-01T00:03:27;98647.19;;;12.23;70.77
5755;BME280;2902;42.130;24.732;2023-04-01T00:05:54;98635.50;;;12.24;70.87
5755;BME280;2902;42.130;24.732;2023-04-01T00:08:21;98644.78;;;12.33;70.63
5755;BME280;2902;42.130;24.732;2023-04-01T00:10:48;98652.78;;;12.33;70.83
5755;BME280;2902;42.130;24.732;2023-04-01T00:13:15;98656.22;;;12.22;70.75
5755;BME280;2902;42.130;24.732;2023-04-01T00:15:42;98656.66;;;12.08;70.99
5755;BME280;2902;42.130;24.732;2023-04-01T00:18:10;98659.84;;;11.98;71.10
5755;BME280;2902;42.130;24.732;2023-04-01T00:20:38;98653.13;;;11.96;71.45
5755;BME280;2902;42.130;24.732;2023-04-01T00:23:05;98662.63;;;12.03;71.22
5755;BME280;2902;42.130;24.732;2023-04-01T00:25:32;98669.00;;;12.02;71.37
5755;BME280;2902;42.130;24.732;2023-04-01T00:27:58;98676.59;;;11.99;71.25
5755;BME280;2902;42.130;24.732;2023-04-01T00:30:25;98676.19;;;11.84;71.93
5755;BME280;2902;42.130;24.732;2023-04-01T00:32:52;98671.66;;;11.84;71.73
5755;BME280;2902;42.130;24.732;2023-04-01T00:35:19;98668.13;;;11.72;71.77
5755;BME280;2902;42.130;24.732;2023-04-01T00:37:48;98661.63;;;11.68;72.30
5755;BME280;2902;42.130;24.732;2023-04-01T00:40:24;98668.44;;;11.64;71.73
5755;BME280;2902;42.130;24.732;2023-04-01T00:42:51;98666.59;;;11.65;72.14
5755;BME280;2902;42.130;24.732;2023-04-01T00:45:31;98664.59;;;11.60;72.42
5755;BME280;2902;42.130;24.732;2023-04-01T00:48:01;98664.22;;;11.57;72.18
5755;BME280;2902;42.130;24.732;2023-04-01T00:50:30;98655.13;;;11.46;72.19
5755;BME280;2902;42.130;24.732;2023-04-01T00:53:00;98660.88;;;11.43;72.91
5755;BME280;2902;42.130;24.732;2023-04-01T00:55:30;98661.84;;;11.49;72.49
5755;BME280;2902;42.130;24.732;2023-04-01T00:57:59;98658.06;;;11.56;72.39
5755;BME280;2902;42.130;24.732;2023-04-01T01:00:28;98657.28;;;11.56;71.93
5755;BME280;2902;42.130;24.732;2023-04-01T01:02:55;98652.16;;;11.54;72.56
5755;BME280;2902;42.130;24.732;2023-04-01T01:05:29;98647.44;;;11.56;73.16
5755;BME280;2902;42.130;24.732;2023-04-01T01:08:06;98651.72;;;11.57;72.75
5755;BME280;2902;42.130;24.732;2023-04-01T01:10:38;98646.63;;;11.56;73.07
5755;BME280;2902;42.130;24.732;2023-04-01T01:13:10;98648.41;;;11.62;72.64
5755;BME280;2902;42.130;24.732;2023-04-01T01:15:41;98651.81;;;11.69;72.23
5755;BME280;2902;42.130;24.732;2023-04-01T01:18:19;98652.47;;;11.64;72.77
5755;BME280;2902;42.130;24.732;2023-04-01T01:21:00;98651.59;;;11.52;73.38
5755;BME280;2902;42.130;24.732;2023-04-01T01:26:56;98657.22;;;11.62;73.51
5755;BME280;2902;42.130;24.732;2023-04-01T01:29:35;98652.25;;;11.66;73.85
5755;BME280;2902;42.130;24.732;2023-04-01T01:32:11;98655.44;;;11.74;73.77
5755;BME280;2902;42.130;24.732;2023-04-01T01:34:49;98647.97;;;11.65;74.68
5755;BME280;2902;42.130;24.732;2023-04-01T01:37:23;98645.38;;;11.58;74.55
5755;BME280;2902;42.130;24.732;2023-04-01T01:39:54;98631.03;;;11.59;75.16
5755;BME280;2902;42.130;24.732;2023-04-01T01:42:22;98634.69;;;11.65;75.19
5755;BME280;2902;42.130;24.732;2023-04-01T01:44:52;98635.03;;;11.68;74.47
5755;BME280;2902;42.130;24.732;2023-04-01T01:47:20;98632.28;;;11.57;74.54
5755;BME280;2902;42.130;24.732;2023-04-01T01:49:50;98631.19;;;11.46;75.37
5755;BME280;2902;42.130;24.732;2023-04-01T01:52:17;98631.19;;;11.46;74.95
5755;BME280;2902;42.130;24.732;2023-04-01T01:54:49;98621.06;;;11.37;74.99
5755;BME280;2902;42.130;24.732;2023-04-01T01:57:17;98604.53;;;11.35;75.25
5755;BME280;2902;42.130;24.732;2023-04-01T01:59:47;98605.19;;;11.30;74.90
5755;BME280;2902;42.130;24.732;2023-04-01T02:02:15;98604.75;;;11.33;75.44
5755;BME280;2902;42.130;24.732;2023-04-01T02:04:44;98612.53;;;11.35;75.05
5755;BME280;2902;42.130;24.732;2023-04-01T02:07:14;98601.88;;;11.35;74.83
5755;BME280;2902;42.130;24.732;2023-04-01T02:09:42;98599.72;;;11.43;74.07
5755;BME280;2902;42.130;24.732;2023-04-01T02:12:13;98602.06;;;11.51;73.48
5755;BME280;2902;42.130;24.732;2023-04-01T02:14:44;98605.91;;;11.55;73.38
5755;BME280;2902;42.130;24.732;2023-04-01T02:17:15;98600.09;;;11.47;73.31
5755;BME280;2902;42.130;24.732;2023-04-01T02:19:47;98612.59;;;11.46;73.32
5755;BME280;2902;42.130;24.732;2023-04-01T02:22:18;98632.81;;;11.47;73.38
5755;BME280;2902;42.130;24.732;2023-04-01T02:24:48;98624.34;;;11.39;73.07
5755;BME280;2902;42.130;24.732;2023-04-01T02:27:17;98626.78;;;11.40;73.10
5755;BME280;2902;42.130;24.732;2023-04-01T02:29:44;98611.25;;;11.37;72.89
5755;BME280;2902;42.130;24.732;2023-04-01T02:32:12;98601.19;;;11.39;73.46
5755;BME280;2902;42.130;24.732;2023-04-01T02:34:40;98588.81;;;11.33;73.30
5755;BME280;2902;42.130;24.732;2023-04-01T02:37:08;98598.69;;;11.26;73.40
5755;BME280;2902;42.130;24.732;2023-04-01T02:39:35;98599.00;;;11.18;73.94
5755;BME280;2902;42.130;24.732;2023-04-01T02:42:01;98593.25;;;11.21;74.18
5755;BME280;2902;42.130;24.732;2023-04-01T02:44:30;98586.44;;;11.25;74.40
5755;BME280;2902;42.130;24.732;2023-04-01T02:46:56;98598.84;;;11.31;73.83
5755;BME280;2902;42.130;24.732;2023-04-01T02:49:23;98607.09;;;11.23;73.93
5755;BME280;2902;42.130;24.732;2023-04-01T02:51:50;98597.94;;;11.19;73.96
5755;BME280;2902;42.130;24.732;2023-04-01T02:54:17;98596.72;;;11.22;74.30
5755;BME280;2902;42.130;24.732;2023-04-01T02:56:44;98602.47;;;11.19;74.45
5755;BME280;2902;42.130;24.732;2023-04-01T02:59:11;98595.47;;;11.24;74.76
5755;BME280;2902;42.130;24.732;2023-04-01T03:01:39;98589.25;;;11.30;74.23
5755;BME280;2902;42.130;24.732;2023-04-01T03:04:05;98586.94;;;11.34;73.96
5755;BME280;2902;42.130;24.732;2023-04-01T03:06:33;98584.53;;;11.32;74.22
5755;BME280;2902;42.130;24.732;2023-04-01T03:09:00;98585.09;;;11.34;73.91
5755;BME280;2902;42.130;24.732;2023-04-01T03:11:28;98588.22;;;11.31;73.73
5755;BME280;2902;42.130;24.732;2023-04-01T03:13:54;98598.47;;;11.28;74.22
5755;BME280;2902;42.130;24.732;2023-04-01T03:16:21;98595.81;;;11.28;74.17
5755;BME280;2902;42.130;24.732;2023-04-01T03:18:49;98585.41;;;11.26;74.53
5755;BME280;2902;42.130;24.732;2023-04-01T03:21:19;98570.38;;;11.20;74.39
5755;BME280;2902;42.130;24.732;2023-04-01T03:23:46;98597.44;;;11.29;74.28
5755;BME280;2902;42.130;24.732;2023-04-01T03:26:13;98579.22;;;11.32;74.35
5755;BME280;2902;42.130;24.732;2023-04-01T03:28:40;98574.84;;;11.38;73.87
5755;BME280;2902;42.130;24.732;2023-04-01T03:31:07;98566.72;;;11.33;73.77
5755;BME280;2902;42.130;24.732;2023-04-01T03:33:34;98584.81;;;11.42;73.57
5755;BME280;2902;42.130;24.732;2023-04-01T03:36:02;98571.50;;;11.42;73.35
5755;BME280;2902;42.130;24.732;2023-04-01T03:38:31;98563.31;;;11.44;73.36
5755;BME280;2902;42.130;24.732;2023-04-01T03:40:58;98556.59;;;11.41;73.62
5755;BME280;2902;42.130;24.732;2023-04-01T03:43:25;98549.19;;;11.43;73.57
5755;BME280;2902;42.130;24.732;2023-04-01T03:45:53;98554.38;;;11.38;73.53
5755;BME280;2902;42.130;24.732;2023-04-01T03:48:20;98554.75;;;11.42;73.68
5755;BME280;2902;42.130;24.732;2023-04-01T03:50:47;98570.63;;;11.48;73.61
5755;BME280;2902;42.130;24.732;2023-04-01T03:53:15;98571.81;;;11.52;73.46
5755;BME280;2902;42.130;24.732;2023-04-01T03:55:42;98571.81;;;11.52;73.65
5755;BME280;2902;42.130;24.732;2023-04-01T03:58:09;98561.31;;;11.39;72.89
5755;BME280;2902;42.130;24.732;2023-04-01T04:00:36;98559.66;;;11.27;74.20
5755;BME280;2902;42.130;24.732;2023-04-01T04:03:03;98541.22;;;11.14;74.46
5755;BME280;2902;42.130;24.732;2023-04-01T04:05:29;98543.50;;;10.92;75.51
5755;BME280;2902;42.130;24.732;2023-04-01T04:07:56;98549.09;;;11.02;75.74
5755;BME280;2902;42.130;24.732;2023-04-01T04:10:24;98553.97;;;11.05;74.71
5755;BME280;2902;42.130;24.732;2023-04-01T04:12:51;98553.53;;;11.08;75.31
5755;BME280;2902;42.130;24.732;2023-04-01T04:15:19;98552.19;;;11.17;75.21
5755;BME280;2902;42.130;24.732;2023-04-01T04:17:46;98532.69;;;11.23;75.06
5755;BME280;2902;42.130;24.732;2023-04-01T04:20:13;98543.63;;;11.33;74.93
5755;BME280;2902;42.130;24.732;2023-04-01T04:22:40;98552.34;;;11.40;74.00
5755;BME280;2902;42.130;24.732;2023-04-01T04:25:10;98553.13;;;11.41;74.35
5755;BME280;2902;42.130;24.732;2023-04-01T04:27:38;98512.47;;;11.22;74.12
5755;BME280;2902;42.130;24.732;2023-04-01T04:30:06;98547.13;;;11.63;73.65
5755;BME280;2902;42.130;24.732;2023-04-01T04:32:33;98555.22;;;11.68;73.50
5755;BME280;2902;42.130;24.732;2023-04-01T04:35:00;98549.38;;;11.78;73.95
5755;BME280;2902;42.130;24.732;2023-04-01T04:37:28;98522.44;;;11.74;73.78
5755;BME280;2902;42.130;24.732;2023-04-01T04:39:56;98550.97;;;12.08;72.87
5755;BME280;2902;42.130;24.732;2023-04-01T04:42:22;98552.88;;;12.42;72.28
5755;BME280;2902;42.130;24.732;2023-04-01T04:44:50;98548.59;;;12.76;70.66
5755;BME280;2902;42.130;24.732;2023-04-01T04:47:17;98560.59;;;13.24;68.92
5755;BME280;2902;42.130;24.732;2023-04-01T04:49:44;98563.94;;;13.31;68.71
5755;BME280;2902;42.130;24.732;2023-04-01T04:52:10;98565.84;;;13.19;69.03
5755;BME280;2902;42.130;24.732;2023-04-01T04:54:37;98570.84;;;13.16;69.79
5755;BME280;2902;42.130;24.732;2023-04-01T04:57:04;98571.53;;;13.11;68.92
5755;BME280;2902;42.130;24.732;2023-04-01T04:59:31;98574.69;;;13.08;69.61
5755;BME280;2902;42.130;24.732;2023-04-01T05:01:59;98565.25;;;13.06;69.16
5755;BME280;2902;42.130;24.732;2023-04-01T05:04:26;98563.88;;;13.03;69.40
5755;BME280;2902;42.130;24.732;2023-04-01T05:06:52;98551.03;;;13.00;70.62
5755;BME280;2902;42.130;24.732;2023-04-01T05:09:19;98558.09;;;13.06;70.16
5755;BME280;2902;42.130;24.732;2023-04-01T05:11:52;98553.34;;;13.08;70.05
5755;BME280;2902;42.130;24.732;2023-04-01T05:14:19;98567.06;;;13.28;69.25
5755;BME280;2902;42.130;24.732;2023-04-01T05:16:49;98565.38;;;13.22;69.75
5755;BME280;2902;42.130;24.732;2023-04-01T05:19:20;98564.53;;;13.22;69.78
5755;BME280;2902;42.130;24.732;2023-04-01T05:21:47;98546.59;;;13.17;70.28
5755;BME280;2902;42.130;24.732;2023-04-01T05:24:18;98546.34;;;13.30;69.82
5755;BME280;2902;42.130;24.732;2023-04-01T05:26:44;98553.00;;;13.44;69.35
5755;BME280;2902;42.130;24.732;2023-04-01T05:29:11;98546.75;;;13.50;69.13
5755;BME280;2902;42.130;24.732;2023-04-01T05:31:38;98541.78;;;13.42;68.59
5755;BME280;2902;42.130;24.732;2023-04-01T05:34:05;98544.63;;;13.52;69.37
5755;BME280;2902;42.130;24.732;2023-04-01T05:36:33;98543.97;;;13.45;68.82
5755;BME280;2902;42.130;24.732;2023-04-01T05:39:01;98533.31;;;13.45;68.67
5755;BME280;2902;42.130;24.732;2023-04-01T05:41:28;98519.09;;;13.56;69.85
5755;BME280;2902;42.130;24.732;2023-04-01T05:43:55;98516.03;;;13.64;68.63
5755;BME280;2902;42.130;24.732;2023-04-01T05:46:21;98514.03;;;13.71;68.75
5755;BME280;2902;42.130;24.732;2023-04-01T05:48:48;98507.09;;;13.70;67.75
5755;BME280;2902;42.130;24.732;2023-04-01T05:51:15;98498.25;;;13.70;68.24
5755;BME280;2902;42.130;24.732;2023-04-01T05:53:43;98499.56;;;13.67;67.95
5755;BME280;2902;42.130;24.732;2023-04-01T05:56:10;98502.16;;;13.62;68.42
5755;BME280;2902;42.130;24.732;2023-04-01T05:58:37;98483.84;;;13.54;68.37
5755;BME280;2902;42.130;24.732;2023-04-01T06:01:06;98488.44;;;13.42;68.99
5755;BME280;2902;42.130;24.732;2023-04-01T06:03:33;98482.84;;;13.44;69.28
5755;BME280;2902;42.130;24.732;2023-04-01T06:06:01;98470.69;;;13.36;70.06
5755;BME280;2902;42.130;24.732;2023-04-01T06:08:30;98507.09;;;13.42;68.86
5755;BME280;2902;42.130;24.732;2023-04-01T06:11:18;98488.22;;;13.32;69.94
5755;BME280;2902;42.130;24.732;2023-04-01T06:13:58;98477.47;;;13.27;69.99
5755;BME280;2902;42.130;24.732;2023-04-01T06:16:39;98447.06;;;13.28;70.27
5755;BME280;2902;42.130;24.732;2023-04-01T06:19:19;98447.19;;;13.05;71.12
5755;BME280;2902;42.130;24.732;2023-04-01T06:24:57;98442.78;;;13.27;70.63
5755;BME280;2902;42.130;24.732;2023-04-01T06:27:40;98456.28;;;13.21;70.85
5755;BME280;2902;42.130;24.732;2023-04-01T06:30:27;98455.28;;;13.38;71.08
5755;BME280;2902;42.130;24.732;2023-04-01T06:33:05;98462.63;;;13.76;75.40
5755;BME280;2902;42.130;24.732;2023-04-01T06:35:43;98468.53;;;13.78;70.08
5755;BME280;2902;42.130;24.732;2023-04-01T06:38:40;98462.19;;;13.67;69.54
5755;BME280;2902;42.130;24.732;2023-04-01T06:41:23;98466.88;;;13.60;70.48
5755;BME280;2902;42.130;24.732;2023-04-01T06:43:59;98459.56;;;13.39;70.98
5755;BME280;2902;42.130;24.732;2023-04-01T06:46:40;98461.31;;;13.34;71.66
5755;BME280;2902;42.130;24.732;2023-04-01T06:49:39;98456.50;;;13.19;72.46
5755;BME280;2902;42.130;24.732;2023-04-01T06:52:15;98455.19;;;13.33;72.68
5755;BME280;2902;42.130;24.732;2023-04-01T06:54:49;98456.97;;;13.44;71.96
5755;BME280;2902;42.130;24.732;2023-04-01T06:57:22;98458.97;;;13.65;71.54
5755;BME280;2902;42.130;24.732;2023-04-01T06:59:54;98468.38;;;13.68;70.82
5755;BME280;2902;42.130;24.732;2023-04-01T07:02:27;98470.13;;;13.79;70.60
5755;BME280;2902;42.130;24.732;2023-04-01T07:04:57;98476.56;;;13.94;70.13
5755;BME280;2902;42.130;24.732;2023-04-01T07:07:31;98468.38;;;14.01;70.30
5755;BME280;2902;42.130;24.732;2023-04-01T07:10:04;98463.03;;;14.17;69.87
5755;BME280;2902;42.130;24.732;2023-04-01T07:12:38;98437.47;;;14.21;69.64
5755;BME280;2902;42.130;24.732;2023-04-01T07:15:15;98446.50;;;14.37;69.01
5755;BME280;2902;42.130;24.732;2023-04-01T07:17:44;98444.72;;;14.42;68.92
5755;BME280;2902;42.130;24.732;2023-04-01T07:22:44;98437.94;;;14.51;68.46
5755;BME280;2902;42.130;24.732;2023-04-01T07:25:14;98434.13;;;14.47;69.15
5755;BME280;2902;42.130;24.732;2023-04-01T07:27:43;98417.84;;;14.49;68.68
5755;BME280;2902;42.130;24.732;2023-04-01T07:30:16;98415.16;;;14.49;69.14
5755;BME280;2902;42.130;24.732;2023-04-01T07:32:47;98412.19;;;14.45;69.21
5755;BME280;2902;42.130;24.732;2023-04-01T07:35:24;98419.25;;;14.35;69.55
5755;BME280;2902;42.130;24.732;2023-04-01T07:38:07;98424.00;;;14.49;69.69
5755;BME280;2902;42.130;24.732;2023-04-01T07:40:42;98410.69;;;14.54;70.10
5755;BME280;2902;42.130;24.732;2023-04-01T07:43:22;98411.59;;;14.81;68.73
5755;BME280;2902;42.130;24.732;2023-04-01T07:45:59;98417.56;;;14.88;68.73
5755;BME280;2902;42.130;24.732;2023-04-01T07:48:32;98412.81;;;14.95;67.95
5755;BME280;2902;42.130;24.732;2023-04-01T07:51:03;98413.28;;;15.14;67.62
5755;BME280;2902;42.130;24.732;2023-04-01T07:53:38;98414.19;;;15.24;68.03
5755;BME280;2902;42.130;24.732;2023-04-01T07:56:10;98419.25;;;15.42;67.45
5755;BME280;2902;42.130;24.732;2023-04-01T07:58:48;98410.94;;;15.70;66.54
5755;BME280;2902;42.130;24.732;2023-04-01T08:01:25;98414.59;;;15.91;65.27
5755;BME280;2902;42.130;24.732;2023-04-01T08:04:12;98407.72;;;16.05;64.64
5755;BME280;2902;42.130;24.732;2023-04-01T08:06:45;98408.53;;;16.06;64.69
5755;BME280;2902;42.130;24.732;2023-04-01T08:09:20;98403.34;;;15.89;65.31
5755;BME280;2902;42.130;24.732;2023-04-01T08:12:00;98400.50;;;16.06;65.04
5755;BME280;2902;42.130;24.732;2023-04-01T08:14:39;98392.53;;;16.16;64.71
5755;BME280;2902;42.130;24.732;2023-04-01T08:17:15;98381.16;;;15.98;64.99
5755;BME280;2902;42.130;24.732;2023-04-01T08:19:54;98365.03;;;15.88;65.20
5755;BME280;2902;42.130;24.732;2023-04-01T08:22:27;98376.22;;;15.80;65.29
5755;BME280;2902;42.130;24.732;2023-04-01T08:24:55;98372.50;;;15.86;65.80
5755;BME280;2902;42.130;24.732;2023-04-01T08:27:31;98363.41;;;15.88;65.37
5755;BME280;2902;42.130;24.732;2023-04-01T08:30:04;98364.53;;;15.92;65.41
5755;BME280;2902;42.130;24.732;2023-04-01T08:32:36;98350.88;;;15.93;64.99
5755;BME280;2902;42.130;24.732;2023-04-01T08:35:09;98353.28;;;15.94;64.44
5755;BME280;2902;42.130;24.732;2023-04-01T08:37:41;98351.97;;;15.97;65.07
5755;BME280;2902;42.130;24.732;2023-04-01T08:40:39;98354.91;;;15.96;64.79
5755;BME280;2902;42.130;24.732;2023-04-01T08:43:16;98362.97;;;16.01;65.05
5755;BME280;2902;42.130;24.732;2023-04-01T08:46:23;98344.56;;;16.14;64.98
5755;BME280;2902;42.130;24.732;2023-04-01T08:49:07;98333.88;;;16.19;64.03
5755;BME280;2902;42.130;24.732;2023-04-01T08:55:04;98319.69;;;16.24;64.09
5755;BME280;2902;42.130;24.732;2023-04-01T08:57:46;98323.44;;;16.23;63.79
5755;BME280;2902;42.130;24.732;2023-04-01T09:00:25;98316.50;;;16.32;63.65
5755;BME280;2902;42.130;24.732;2023-04-01T09:03:09;98322.44;;;16.39;63.78
5755;BME280;2902;42.130;24.732;2023-04-01T09:06:19;98310.72;;;16.45;63.40
5755;BME280;2902;42.130;24.732;2023-04-01T09:09:01;98294.66;;;16.55;62.98
5755;BME280;2902;42.130;24.732;2023-04-01T09:11:42;98292.56;;;16.67;62.76
5755;BME280;2902;42.130;24.732;2023-04-01T09:14:30;98284.00;;;16.65;63.19
5755;BME280;2902;42.130;24.732;2023-04-01T09:20:23;98271.38;;;16.70;61.71
5755;BME280;2902;42.130;24.732;2023-04-01T09:25:55;98259.03;;;16.64;62.17
5755;BME280;2902;42.130;24.732;2023-04-01T09:28:28;98259.59;;;16.71;62.14
5755;BME280;2902;42.130;24.732;2023-04-01T09:31:20;98253.94;;;16.53;62.42
5755;BME280;2902;42.130;24.732;2023-04-01T09:34:25;98244.19;;;16.37;63.10
5755;BME280;2902;42.130;24.732;2023-04-01T09:37:13;98246.41;;;16.45;62.92
5755;BME280;2902;42.130;24.732;2023-04-01T09:39:54;98237.28;;;16.46;63.07
5755;BME280;2902;42.130;24.732;2023-04-01T09:42:41;98221.78;;;16.58;62.89
5755;BME280;2902;42.130;24.732;2023-04-01T09:45:21;98240.03;;;16.76;61.74
5755;BME280;2902;42.130;24.732;2023-04-01T09:48:00;98245.94;;;16.88;61.51
5755;BME280;2902;42.130;24.732;2023-04-01T09:50:45;98251.34;;;16.98;61.76
5755;BME280;2902;42.130;24.732;2023-04-01T09:53:24;98247.03;;;17.02;61.38
5755;BME280;2902;42.130;24.732;2023-04-01T10:02:27;98223.69;;;17.47;59.11
5755;BME280;2902;42.130;24.732;2023-04-01T10:05:27;98218.03;;;17.64;58.41
5755;BME280;2902;42.130;24.732;2023-04-01T10:08:26;98200.81;;;17.80;58.30
5755;BME280;2902;42.130;24.732;2023-04-01T10:11:20;98189.00;;;17.76;58.50
5755;BME280;2902;42.130;24.732;2023-04-01T10:17:19;98185.16;;;17.97;57.58
5755;BME280;2902;42.130;24.732;2023-04-01T10:19:59;98180.25;;;18.14;57.14
5755;BME280;2902;42.130;24.732;2023-04-01T10:22:50;98169.50;;;18.14;57.03
5755;BME280;2902;42.130;24.732;2023-04-01T10:26:00;98158.44;;;18.20;56.89
5755;BME280;2902;42.130;24.732;2023-04-01T10:28:52;98144.19;;;18.25;56.98
5755;BME280;2902;42.130;24.732;2023-04-01T10:31:40;98153.75;;;18.41;56.70
5755;BME280;2902;42.130;24.732;2023-04-01T10:34:37;98149.16;;;18.46;55.89
5755;BME280;2902;42.130;24.732;2023-04-01T10:37:20;98158.66;;;18.34;56.89
5755;BME280;2902;42.130;24.732;2023-04-01T10:40:12;98134.50;;;18.24;56.94
5755;BME280;2902;42.130;24.732;2023-04-01T10:43:11;98128.59;;;18.22;57.14
5755;BME280;2902;42.130;24.732;2023-04-01T10:49:13;98093.56;;;18.32;57.15
5755;BME280;2902;42.130;24.732;2023-04-01T10:55:00;98069.47;;;18.60;56.38
5755;BME280;2902;42.130;24.732;2023-04-01T11:01:14;98052.22;;;18.95;55.04
5755;BME280;2902;42.130;24.732;2023-04-01T11:04:29;98054.28;;;19.03;54.91
5755;BME280;2902;42.130;24.732;2023-04-01T11:17:01;98052.41;;;19.27;53.94
5755;BME280;2902;42.130;24.732;2023-04-01T11:25:46;98030.34;;;19.48;53.14
5755;BME280;2902;42.130;24.732;2023-04-01T11:28:27;98027.75;;;19.62;53.42
5755;BME280;2902;42.130;24.732;2023-04-01T11:34:12;98024.56;;;19.60;52.96
5755;BME280;2902;42.130;24.732;2023-04-01T11:36:51;98029.28;;;19.68;52.96
5755;BME280;2902;42.130;24.732;2023-04-01T11:39:31;98006.13;;;19.85;52.34
5755;BME280;2902;42.130;24.732;2023-04-01T11:42:09;97996.72;;;20.01;52.08
5755;BME280;2902;42.130;24.732;2023-04-01T11:44:46;98002.13;;;20.20;51.91
5755;BME280;2902;42.130;24.732;2023-04-01T11:47:58;97990.09;;;20.31;51.01
5755;BME280;2902;42.130;24.732;2023-04-01T11:50:52;97975.25;;;20.15;51.65
5755;BME280;2902;42.130;24.732;2023-04-01T11:53:32;97992.84;;;20.12;51.76
5755;BME280;2902;42.130;24.732;2023-04-01T11:56:11;97984.38;;;20.19;51.66
5755;BME280;2902;42.130;24.732;2023-04-01T11:58:55;97987.34;;;19.99;52.22
5755;BME280;2902;42.130;24.732;2023-04-01T12:01:31;97980.78;;;20.05;52.27
5755;BME280;2902;42.130;24.732;2023-04-01T12:04:29;97982.25;;;19.97;52.61
5755;BME280;2902;42.130;24.732;2023-04-01T12:07:05;97983.84;;;19.98;53.19
5755;BME280;2902;42.130;24.732;2023-04-01T12:09:44;97972.00;;;19.81;53.11
5755;BME280;2902;42.130;24.732;2023-04-01T12:12:18;97971.72;;;19.64;53.90
5755;BME280;2902;42.130;24.732;2023-04-01T12:14:58;97978.31;;;19.53;54.40
5755;BME280;2902;42.130;24.732;2023-04-01T12:17:34;97958.16;;;19.50;54.19
5755;BME280;2902;42.130;24.732;2023-04-01T12:20:22;97946.44;;;19.41;54.84
5755;BME280;2902;42.130;24.732;2023-04-01T12:23:02;97935.59;;;19.46;54.69
5755;BME280;2902;42.130;24.732;2023-04-01T12:26:00;97923.28;;;19.59;54.56
5755;BME280;2902;42.130;24.732;2023-04-01T12:28:41;97911.97;;;19.94;53.45
5755;BME280;2902;42.130;24.732;2023-04-01T12:31:22;97910.72;;;20.05;53.26
5755;BME280;2902;42.130;24.732;2023-04-01T12:34:00;97897.59;;;20.30;52.82
5755;BME280;2902;42.130;24.732;2023-04-01T12:36:45;97887.03;;;20.61;52.12
5755;BME280;2902;42.130;24.732;2023-04-01T12:39:33;97888.16;;;20.60;52.05
5755;BME280;2902;42.130;24.732;2023-04-01T12:42:14;97891.66;;;20.74;52.16
5755;BME280;2902;42.130;24.732;2023-04-01T12:44:57;97877.44;;;20.82;51.48
5755;BME280;2902;42.130;24.732;2023-04-01T12:47:47;97883.88;;;20.59;51.99
5755;BME280;2902;42.130;24.732;2023-04-01T12:50:23;97873.38;;;20.58;52.31
5755;BME280;2902;42.130;24.732;2023-04-01T12:53:02;97869.84;;;20.57;52.47
5755;BME280;2902;42.130;24.732;2023-04-01T12:55:37;97865.84;;;20.41;52.62
5755;BME280;2902;42.130;24.732;2023-04-01T12:58:29;97860.47;;;20.41;52.94
5755;BME280;2902;42.130;24.732;2023-04-01T13:04:28;97873.03;;;20.00;53.59
5755;BME280;2902;42.130;24.732;2023-04-01T13:07:18;97864.75;;;19.96;53.39
5755;BME280;2902;42.130;24.732;2023-04-01T13:09:53;97862.63;;;20.12;53.05
5755;BME280;2902;42.130;24.732;2023-04-01T13:12:37;97839.47;;;20.11;53.32
5755;BME280;2902;42.130;24.732;2023-04-01T13:15:23;97846.47;;;20.25;53.25
5755;BME280;2902;42.130;24.732;2023-04-01T13:17:56;97847.50;;;20.43;52.03
5755;BME280;2902;42.130;24.732;2023-04-01T13:20:33;97860.25;;;20.24;51.98
5755;BME280;2902;42.130;24.732;2023-04-01T13:23:13;97860.81;;;20.21;51.59
5755;BME280;2902;42.130;24.732;2023-04-01T13:25:47;97866.44;;;20.24;51.30
5755;BME280;2902;42.130;24.732;2023-04-01T13:28:20;97871.13;;;20.19;52.34
5755;BME280;2902;42.130;24.732;2023-04-01T13:30:58;97893.00;;;19.99;52.58
5755;BME280;2902;42.130;24.732;2023-04-01T13:33:38;97956.97;;;19.75;54.98
5755;BME280;2902;42.130;24.732;2023-04-01T13:36:19;97998.47;;;19.55;53.65
5755;BME280;2902;42.130;24.732;2023-04-01T13:39:23;97996.31;;;19.10;54.64
5755;BME280;2902;42.130;24.732;2023-04-01T13:42:06;98003.81;;;18.90;55.12
5755;BME280;2902;42.130;24.732;2023-04-01T13:44:42;97992.38;;;18.51;56.60
5755;BME280;2902;42.130;24.732;2023-04-01T13:47:48;98019.53;;;18.49;56.74
5755;BME280;2902;42.130;24.732;2023-04-01T13:50:38;98046.91;;;18.18;59.69
5755;BME280;2902;42.130;24.732;2023-04-01T13:53:24;98070.81;;;17.76;61.47
5755;BME280;2902;42.130;24.732;2023-04-01T13:56:08;98078.72;;;17.47;61.58
5755;BME280;2902;42.130;24.732;2023-04-01T13:59:00;98074.75;;;17.20;62.51
5755;BME280;2902;42.130;24.732;2023-04-01T14:01:33;98082.28;;;17.13;66.12
5755;BME280;2902;42.130;24.732;2023-04-01T14:04:27;98096.78;;;17.12;69.38
5755;BME280;2902;42.130;24.732;2023-04-01T14:07:04;98111.28;;;17.11;70.41
5755;BME280;2902;42.130;24.732;2023-04-01T14:09:45;98104.31;;;17.00;70.63
5755;BME280;2902;42.130;24.732;2023-04-01T14:12:26;98129.28;;;16.75;72.35
5755;BME280;2902;42.130;24.732;2023-04-01T14:15:07;98125.25;;;17.03;72.21
5755;BME280;2902;42.130;24.732;2023-04-01T14:17:50;98129.00;;;17.02;71.45
5755;BME280;2902;42.130;24.732;2023-04-01T14:20:31;98131.13;;;17.00;70.08
5755;BME280;2902;42.130;24.732;2023-04-01T14:23:31;98123.63;;;17.12;72.19
5755;BME280;2902;42.130;24.732;2023-04-01T14:26:10;98119.53;;;17.44;70.17
5755;BME280;2902;42.130;24.732;2023-04-01T14:28:45;98105.59;;;17.27;69.41
5755;BME280;2902;42.130;24.732;2023-04-01T14:31:34;98094.09;;;17.17;69.52
5755;BME280;2902;42.130;24.732;2023-04-01T14:34:12;98089.50;;;17.27;69.39
5755;BME280;2902;42.130;24.732;2023-04-01T14:36:53;98092.78;;;17.09;67.90
5755;BME280;2902;42.130;24.732;2023-04-01T14:39:46;98082.31;;;17.03;68.48
5755;BME280;2902;42.130;24.732;2023-04-01T14:42:23;98068.41;;;16.76;69.20
5755;BME280;2902;42.130;24.732;2023-04-01T14:45:12;98056.06;;;16.75;69.48
5755;BME280;2902;42.130;24.732;2023-04-01T14:47:48;98037.31;;;16.55;69.94
5755;BME280;2902;42.130;24.732;2023-04-01T14:50:21;98050.19;;;16.43;70.98
5755;BME280;2902;42.130;24.732;2023-04-01T14:52:57;98055.81;;;16.41;71.09
5755;BME280;2902;42.130;24.732;2023-04-01T14:55:31;98044.31;;;16.41;71.05